Date,TemperatureHighF,TemperatureAvgF,TemperatureLowF,DewpointHighF,DewpointAvgF,DewpointLowF,HumidityHigh,HumidityAvg,HumidityLow,PressureMaxIn,PressureMinIn,WindSpeedMaxMPH,WindSpeedAvgMPH,GustSpeedMaxMPH,PrecipitationSumIn
2013-9-1,93.4,69.6,48.6,53.8,43.1,32.3,78,46,12,30.18,30.00,8,3,11,0.00
2013-9-2,86.4,71.4,59.7,58.6,49.0,34.8,75,48,16,30.13,30.02,10,3,14,0.00
2013-9-3,70.2,63.2,57.0,58.8,55.9,52.3,94,78,66,30.24,30.12,6,2,8,0.00
2013-9-4,90.7,69.6,52.5,59.6,54.8,50.8,97,65,28,30.27,30.14,6,3,8,0.00
2013-9-5,80.8,68.8,62.4,64.9,58.1,51.5,93,70,50,30.25,30.08,8,3,11,0.17
2013-9-6,82.6,67.8,57.0,64.7,58.2,44.1,99,75,41,30.22,30.12,9,3,12,0.02
2013-9-7,84.2,67.5,55.9,55.4,51.9,46.1,80,59,33,30.24,30.12,8,3,11,0.00
2013-9-8,57.4,54.6,51.8,53.3,50.9,48.7,93,87,78,30.18,30.16,4,2,4,0.00
2013-9-9,78.8,67.8,54.0,58.5,55.6,53.0,99,68,42,30.19,30.11,7,3,10,0.01
2013-9-10,84.4,66.3,50.7,57.2,53.3,49.7,99,68,32,30.25,30.16,7,3,10,0.00
2013-9-11,94.8,70.4,53.1,57.5,49.2,31.2,92,56,12,30.34,30.22,6,3,9,0.00
2013-9-12,95.4,70.9,52.9,51.1,45.5,27.9,77,48,10,30.31,30.09,6,3,8,0.00
2013-9-13,92.8,67.9,52.9,56.1,49.8,43.0,79,56,19,30.09,29.96,6,3,11,0.00
2013-9-14,92.8,72.5,57.2,52.3,46.1,32.0,76,46,13,30.17,30.02,6,3,11,0.00
2013-9-15,90.1,69.1,51.4,54.7,47.7,41.3,80,52,19,30.18,29.92,6,3,10,0.00
2013-9-16,83.8,65.2,53.2,59.7,51.8,45.2,89,64,37,30.01,29.91,8,2,14,0.05
2013-9-17,77.4,59.6,45.1,53.3,45.4,33.5,97,65,23,30.01,29.75,13,3,22,0.09
2013-9-18,54.0,50.1,47.3,53.3,48.9,46.1,99,96,87,30.23,29.83,8,2,14,0.99
2013-9-19,69.1,53.2,43.7,52.5,45.4,38.9,99,78,38,30.33,30.19,8,2,11,0.01
2013-9-20,77.0,55.0,38.8,48.1,42.7,38.3,99,69,26,30.19,29.85,5,3,8,0.00
2013-9-21,70.5,54.6,43.9,55.2,45.8,40.6,89,74,40,29.86,29.81,7,3,11,0.01
2013-9-22,71.1,53.9,41.9,49.2,43.6,39.1,97,70,36,29.87,29.81,10,3,17,0.02
2013-9-23,63.9,52.7,44.8,46.4,42.4,36.1,92,70,41,30.10,29.85,12,4,22,0.04
2013-9-24,54.5,47.7,42.3,50.4,45.1,41.5,99,91,74,30.09,29.91,8,2,11,0.11
2013-9-25,54.3,47.1,40.8,47.3,42.9,35.6,99,86,59,30.01,29.89,12,4,17,0.19
2013-9-26,62.2,46.0,34.9,39.9,32.6,19.4,89,65,23,30.16,30.00,9,4,13,0.00
2013-9-27,55.4,42.9,30.4,40.5,34.3,28.6,98,74,44,30.15,30.05,13,3,19,0.00
2013-9-28,63.1,53.1,43.0,45.4,40.9,35.1,86,64,48,30.06,29.78,11,4,16,0.00
2013-9-29,59.7,53.1,48.4,49.0,40.3,35.6,88,63,44,29.85,29.61,17,6,24,0.12
2013-9-30,59.2,49.6,42.4,44.7,38.6,32.2,99,69,39,30.01,29.63,17,6,27,0.11